sensor_id;sensor_type;location;lat;lon;timestamp;P1;durP1;ratioP1;P2;durP2;ratioP2
15331;SDS011;7766;51.534;6.722;2023-03-01T12:49:08;7.60;;;5.70;;
15331;SDS011;7766;51.534;6.722;2023-03-01T12:50:19;5.93;;;5.20;;
15331;SDS011;7766;51.534;6.722;2023-03-01T12:51:24;7.40;;;5.50;;
15331;SDS011;7766;51.534;6.722;2023-03-01T12:52:33;6.38;;;5.30;;
15331;SDS011;7766;51.534;6.722;2023-03-01T12:53:46;7.22;;;5.10;;
15331;SDS011;7766;51.534;6.722;2023-03-01T12:54:49;5.80;;;4.88;;
15331;SDS011;7766;51.534;6.722;2023-03-01T12:55:55;6.65;;;5.20;;
15331;SDS011;7766;51.534;6.722;2023-03-01T12:57:03;6.95;;;4.93;;
15331;SDS011;7766;51.534;6.722;2023-03-01T12:59:49;7.38;;;5.45;;
15331;SDS011;7766;51.534;6.722;2023-03-01T13:01:21;7.15;;;5.80;;
15331;SDS011;7766;51.534;6.722;2023-03-01T13:02:37;7.95;;;5.80;;
15331;SDS011;7766;51.534;6.722;2023-03-01T13:06:40;9.05;;;7.60;;
15331;SDS011;7766;51.534;6.722;2023-03-01T13:08:10;10.05;;;7.72;;
15331;SDS011;7766;51.534;6.722;2023-03-01T13:10:49;7.13;;;5.47;;
15331;SDS011;7766;51.534;6.722;2023-03-01T13:11:55;7.88;;;5.47;;
15331;SDS011;7766;51.534;6.722;2023-03-01T13:15:25;6.28;;;5.13;;
15331;SDS011;7766;51.534;6.722;2023-03-01T13:17:29;7.03;;;5.45;;
15331;SDS011;7766;51.534;6.722;2023-03-01T13:18:32;6.82;;;6.03;;
15331;SDS011;7766;51.534;6.722;2023-03-01T13:19:33;10.73;;;5.95;;
15331;SDS011;7766;51.534;6.722;2023-03-01T13:21:46;10.90;;;7.32;;
15331;SDS011;7766;51.534;6.722;2023-03-01T13:22:49;8.75;;;6.18;;
15331;SDS011;7766;51.534;6.722;2023-03-01T13:24:03;9.13;;;6.50;;
15331;SDS011;7766;51.534;6.722;2023-03-01T13:25:17;7.97;;;6.07;;
15331;SDS011;7766;51.534;6.722;2023-03-01T13:26:19;7.30;;;5.83;;
15331;SDS011;7766;51.534;6.722;2023-03-01T13:27:22;7.37;;;5.30;;
15331;SDS011;7766;51.534;6.722;2023-03-01T13:30:46;6.20;;;5.57;;
15331;SDS011;7766;51.534;6.722;2023-03-01T13:32:48;7.23;;;5.83;;
15331;SDS011;7766;51.534;6.722;2023-03-01T13:33:49;7.33;;;5.73;;
15331;SDS011;7766;51.534;6.722;2023-03-01T13:34:58;8.73;;;5.83;;
15331;SDS011;7766;51.534;6.722;2023-03-01T13:36:06;8.30;;;5.70;;
15331;SDS011;7766;51.534;6.722;2023-03-01T13:37:10;8.87;;;6.23;;
15331;SDS011;7766;51.534;6.722;2023-03-01T13:39:44;8.40;;;6.00;;
15331;SDS011;7766;51.534;6.722;2023-03-01T13:41:55;8.90;;;5.53;;
15331;SDS011;7766;51.534;6.722;2023-03-01T13:42:57;8.83;;;5.77;;
15331;SDS011;7766;51.534;6.722;2023-03-01T13:44:37;8.50;;;5.83;;
15331;SDS011;7766;51.534;6.722;2023-03-01T13:45:43;7.40;;;5.93;;
15331;SDS011;7766;51.534;6.722;2023-03-01T13:46:46;8.93;;;7.07;;
15331;SDS011;7766;51.534;6.722;2023-03-01T13:47:53;8.17;;;5.80;;
15331;SDS011;7766;51.534;6.722;2023-03-01T13:49:00;13.17;;;8.73;;
15331;SDS011;7766;51.534;6.722;2023-03-01T13:50:02;15.40;;;9.83;;
15331;SDS011;7766;51.534;6.722;2023-03-01T13:51:08;10.77;;;7.30;;
15331;SDS011;7766;51.534;6.722;2023-03-01T13:52:28;7.03;;;5.43;;
15331;SDS011;7766;51.534;6.722;2023-03-01T13:53:45;9.90;;;7.00;;
15331;SDS011;7766;51.534;6.722;2023-03-01T13:54:47;10.97;;;8.20;;
15331;SDS011;7766;51.534;6.722;2023-03-01T13:55:50;9.43;;;7.30;;
15331;SDS011;7766;51.534;6.722;2023-03-01T13:56:55;8.37;;;6.50;;
15331;SDS011;7766;51.534;6.722;2023-03-01T13:57:59;9.70;;;6.80;;
15331;SDS011;7766;51.534;6.722;2023-03-01T14:00:28;8.53;;;6.37;;
15331;SDS011;7766;51.534;6.722;2023-03-01T14:01:33;12.67;;;6.30;;
15331;SDS011;7766;51.534;6.722;2023-03-01T14:02:35;8.33;;;5.80;;
15331;SDS011;7766;51.534;6.722;2023-03-01T14:03:40;13.50;;;6.40;;
15331;SDS011;7766;51.534;6.722;2023-03-01T14:04:41;9.63;;;6.10;;
15331;SDS011;7766;51.534;6.722;2023-03-01T14:05:44;6.60;;;5.57;;
15331;SDS011;7766;51.534;6.722;2023-03-01T14:07:20;9.40;;;6.83;;
15331;SDS011;7766;51.534;6.722;2023-03-01T14:08:25;11.03;;;6.60;;
15331;SDS011;7766;51.534;6.722;2023-03-01T14:09:28;9.90;;;7.20;;
15331;SDS011;7766;51.534;6.722;2023-03-01T14:10:39;14.37;;;6.70;;
15331;SDS011;7766;51.534;6.722;2023-03-01T14:13:45;8.07;;;6.47;;
15331;SDS011;7766;51.534;6.722;2023-03-01T14:15:09;8.70;;;6.17;;
15331;SDS011;7766;51.534;6.722;2023-03-01T14:16:42;12.17;;;6.73;;
15331;SDS011;7766;51.534;6.722;2023-03-01T14:17:48;10.80;;;6.10;;
15331;SDS011;7766;51.534;6.722;2023-03-01T14:19:12;9.27;;;6.33;;
15331;SDS011;7766;51.534;6.722;2023-03-01T14:20:26;8.30;;;6.00;;
15331;SDS011;7766;51.534;6.722;2023-03-01T14:21:29;8.87;;;6.60;;
15331;SDS011;7766;51.534;6.722;2023-03-01T14:22:34;10.20;;;6.47;;
15331;SDS011;7766;51.534;6.722;2023-03-01T14:23:37;9.70;;;6.40;;
15331;SDS011;7766;51.534;6.722;2023-03-01T14:24:46;9.00;;;6.30;;
15331;SDS011;7766;51.534;6.722;2023-03-01T14:25:54;13.77;;;6.63;;
15331;SDS011;7766;51.534;6.722;2023-03-01T14:26:57;9.53;;;6.43;;
15331;SDS011;7766;51.534;6.722;2023-03-01T14:29:24;8.93;;;6.37;;
15331;SDS011;7766;51.534;6.722;2023-03-01T14:30:26;10.90;;;6.40;;
15331;SDS011;7766;51.534;6.722;2023-03-01T14:31:39;9.90;;;6.07;;
15331;SDS011;7766;51.534;6.722;2023-03-01T14:32:47;11.83;;;7.47;;
15331;SDS011;7766;51.534;6.722;2023-03-01T14:33:59;13.23;;;6.97;;
15331;SDS011;7766;51.534;6.722;2023-03-01T14:35:01;11.70;;;7.43;;
15331;SDS011;7766;51.534;6.722;2023-03-01T14:36:03;9.03;;;6.60;;
15331;SDS011;7766;51.534;6.722;2023-03-01T14:37:10;10.70;;;6.83;;
15331;SDS011;7766;51.534;6.722;2023-03-01T14:39:50;12.27;;;6.60;;
15331;SDS011;7766;51.534;6.722;2023-03-01T14:40:53;8.20;;;6.37;;
15331;SDS011;7766;51.534;6.722;2023-03-01T14:41:58;11.23;;;7.50;;
15331;SDS011;7766;51.534;6.722;2023-03-01T14:42:59;10.87;;;6.67;;
15331;SDS011;7766;51.534;6.722;2023-03-01T14:44:11;14.17;;;6.87;;
15331;SDS011;7766;51.534;6.722;2023-03-01T14:45:19;10.97;;;6.50;;
15331;SDS011;7766;51.534;6.722;2023-03-01T14:46:23;9.63;;;6.87;;
15331;SDS011;7766;51.534;6.722;2023-03-01T14:47:27;9.97;;;6.67;;
15331;SDS011;7766;51.534;6.722;2023-03-01T14:48:33;11.67;;;7.20;;
15331;SDS011;7766;51.534;6.722;2023-03-01T14:49:34;8.03;;;6.47;;
15331;SDS011;7766;51.534;6.722;2023-03-01T14:50:40;10.37;;;6.90;;
15331;SDS011;7766;51.534;6.722;2023-03-01T14:51:55;15.97;;;7.53;;
15331;SDS011;7766;51.534;6.722;2023-03-01T14:53:04;8.80;;;6.93;;
15331;SDS011;7766;51.534;6.722;2023-03-01T14:55:32;13.53;;;7.80;;
15331;SDS011;7766;51.534;6.722;2023-03-01T14:56:45;9.90;;;6.23;;
15331;SDS011;7766;51.534;6.722;2023-03-01T14:57:48;10.97;;;6.53;;
15331;SDS011;7766;51.534;6.722;2023-03-01T14:58:51;10.33;;;7.07;;
15331;SDS011;7766;51.534;6.722;2023-03-01T15:00:00;12.13;;;6.73;;
15331;SDS011;7766;51.534;6.722;2023-03-01T15:01:06;13.60;;;7.23;;
15331;SDS011;7766;51.534;6.722;2023-03-01T15:02:13;10.30;;;6.47;;
15331;SDS011;7766;51.534;6.722;2023-03-01T15:03:23;14.33;;;6.77;;
15331;SDS011;7766;51.534;6.722;2023-03-01T15:04:26;9.13;;;6.50;;
15331;SDS011;7766;51.534;6.722;2023-03-01T15:05:32;12.20;;;8.02;;
15331;SDS011;7766;51.534;6.722;2023-03-01T15:06:34;11.20;;;8.38;;
15331;SDS011;7766;51.534;6.722;2023-03-01T15:07:37;11.25;;;8.07;;
15331;SDS011;7766;51.534;6.722;2023-03-01T15:08:41;16.23;;;8.30;;
15331;SDS011;7766;51.534;6.722;2023-03-01T15:09:45;19.73;;;11.95;;
15331;SDS011;7766;51.534;6.722;2023-03-01T15:11:15;14.02;;;9.70;;
15331;SDS011;7766;51.534;6.722;2023-03-01T15:12:32;13.77;;;8.75;;
15331;SDS011;7766;51.534;6.722;2023-03-01T15:13:37;10.48;;;7.70;;
15331;SDS011;7766;51.534;6.722;2023-03-01T15:14:53;8.18;;;6.63;;
15331;SDS011;7766;51.534;6.722;2023-03-01T15:16:29;11.57;;;7.43;;
15331;SDS011;7766;51.534;6.722;2023-03-01T15:17:31;10.50;;;7.35;;
15331;SDS011;7766;51.534;6.722;2023-03-01T15:18:34;11.65;;;6.80;;
15331;SDS011;7766;51.534;6.722;2023-03-01T15:19:37;13.45;;;7.43;;
15331;SDS011;7766;51.534;6.722;2023-03-01T15:20:38;12.18;;;6.72;;
15331;SDS011;7766;51.534;6.722;2023-03-01T15:21:39;8.90;;;5.93;;
15331;SDS011;7766;51.534;6.722;2023-03-01T15:22:49;9.55;;;6.38;;
15331;SDS011;7766;51.534;6.722;2023-03-01T15:23:57;11.25;;;6.45;;
15331;SDS011;7766;51.534;6.722;2023-03-01T15:25:04;7.75;;;6.43;;
15331;SDS011;7766;51.534;6.722;2023-03-01T15:26:05;9.48;;;6.70;;
15331;SDS011;7766;51.534;6.722;2023-03-01T15:27:23;19.48;;;6.95;;
15331;SDS011;7766;51.534;6.722;2023-03-01T15:28:27;10.05;;;6.90;;
15331;SDS011;7766;51.534;6.722;2023-03-01T15:29:33;10.50;;;6.37;;
15331;SDS011;7766;51.534;6.722;2023-03-01T15:30:40;7.77;;;6.33;;
15331;SDS011;7766;51.534;6.722;2023-03-01T15:31:41;10.87;;;6.37;;
15331;SDS011;7766;51.534;6.722;2023-03-01T15:32:42;9.33;;;6.33;;
15331;SDS011;7766;51.534;6.722;2023-03-01T15:33:44;12.23;;;6.23;;
15331;SDS011;7766;51.534;6.722;2023-03-01T15:34:47;11.40;;;6.00;;
15331;SDS011;7766;51.534;6.722;2023-03-01T15:35:49;9.40;;;6.33;;
15331;SDS011;7766;51.534;6.722;2023-03-01T15:36:52;11.13;;;6.00;;
15331;SDS011;7766;51.534;6.722;2023-03-01T15:37:55;7.43;;;5.43;;
15331;SDS011;7766;51.534;6.722;2023-03-01T15:39:00;8.73;;;5.50;;
15331;SDS011;7766;51.534;6.722;2023-03-01T15:40:16;13.00;;;6.77;;
15331;SDS011;7766;51.534;6.722;2023-03-01T15:41:38;14.40;;;6.97;;
15331;SDS011;7766;51.534;6.722;2023-03-01T15:42:48;7.07;;;5.57;;
15331;SDS011;7766;51.534;6.722;2023-03-01T15:43:49;9.77;;;6.03;;
15331;SDS011;7766;51.534;6.722;2023-03-01T15:44:50;10.57;;;6.00;;
15331;SDS011;7766;51.534;6.722;2023-03-01T15:46:22;11.80;;;5.93;;
15331;SDS011;7766;51.534;6.722;2023-03-01T15:47:29;12.00;;;5.83;;
15331;SDS011;7766;51.534;6.722;2023-03-01T15:48:31;15.13;;;6.20;;
15331;SDS011;7766;51.534;6.722;2023-03-01T15:49:35;9.07;;;5.77;;
15331;SDS011;7766;51.534;6.722;2023-03-01T15:50:36;11.20;;;6.17;;
15331;SDS011;7766;51.534;6.722;2023-03-01T15:51:39;7.53;;;6.10;;
15331;SDS011;7766;51.534;6.722;2023-03-01T15:52:41;13.70;;;6.80;;
15331;SDS011;7766;51.534;6.722;2023-03-01T15:53:43;8.83;;;6.67;;
15331;SDS011;7766;51.534;6.722;2023-03-01T15:54:51;12.17;;;6.60;;
15331;SDS011;7766;51.534;6.722;2023-03-01T15:55:52;9.10;;;6.00;;
15331;SDS011;7766;51.534;6.722;2023-03-01T15:56:53;12.97;;;6.63;;
15331;SDS011;7766;51.534;6.722;2023-03-01T15:58:02;11.43;;;6.50;;
15331;SDS011;7766;51.534;6.722;2023-03-01T15:59:12;11.73;;;8.13;;
15331;SDS011;7766;51.534;6.722;2023-03-01T16:00:14;12.90;;;6.50;;
15331;SDS011;7766;51.534;6.722;2023-03-01T16:01:17;12.00;;;6.30;;
15331;SDS011;7766;51.534;6.722;2023-03-01T16:02:18;11.23;;;6.87;;
15331;SDS011;7766;51.534;6.722;2023-03-01T16:03:21;10.27;;;6.50;;
15331;SDS011;7766;51.534;6.722;2023-03-01T16:04:22;9.87;;;6.43;;
15331;SDS011;7766;51.534;6.722;2023-03-01T16:05:27;11.60;;;6.47;;
15331;SDS011;7766;51.534;6.722;2023-03-01T16:06:30;11.97;;;6.53;;
15331;SDS011;7766;51.534;6.722;2023-03-01T16:07:32;8.80;;;7.23;;
15331;SDS011;7766;51.534;6.722;2023-03-01T16:08:33;12.97;;;7.63;;
15331;SDS011;7766;51.534;6.722;2023-03-01T16:09:34;17.53;;;7.20;;
15331;SDS011;7766;51.534;6.722;2023-03-01T16:10:34;12.10;;;6.77;;
15331;SDS011;7766;51.534;6.722;2023-03-01T16:11:36;12.23;;;6.77;;
15331;SDS011;7766;51.534;6.722;2023-03-01T16:12:37;10.60;;;7.07;;
15331;SDS011;7766;51.534;6.722;2023-03-01T16:13:39;11.03;;;7.10;;
15331;SDS011;7766;51.534;6.722;2023-03-01T16:14:40;10.47;;;6.57;;
15331;SDS011;7766;51.534;6.722;2023-03-01T16:15:40;13.03;;;7.07;;
15331;SDS011;7766;51.534;6.722;2023-03-01T16:16:42;8.53;;;6.33;;
15331;SDS011;7766;51.534;6.722;2023-03-01T16:17:44;8.57;;;6.40;;
15331;SDS011;7766;51.534;6.722;2023-03-01T16:18:45;9.60;;;6.80;;
15331;SDS011;7766;51.534;6.722;2023-03-01T16:19:46;10.53;;;6.00;;
15331;SDS011;7766;51.534;6.722;2023-03-01T16:20:47;9.73;;;6.70;;
15331;SDS011;7766;51.534;6.722;2023-03-01T16:21:49;13.73;;;6.90;;
15331;SDS011;7766;51.534;6.722;2023-03-01T16:22:49;12.87;;;7.07;;
15331;SDS011;7766;51.534;6.722;2023-03-01T16:23:51;10.43;;;6.63;;
15331;SDS011;7766;51.534;6.722;2023-03-01T16:24:52;13.80;;;6.73;;
15331;SDS011;7766;51.534;6.722;2023-03-01T16:25:54;14.70;;;7.17;;
15331;SDS011;7766;51.534;6.722;2023-03-01T16:26:59;10.23;;;6.87;;
15331;SDS011;7766;51.534;6.722;2023-03-01T16:28:00;9.77;;;6.80;;
15331;SDS011;7766;51.534;6.722;2023-03-01T16:29:04;10.80;;;6.90;;
15331;SDS011;7766;51.534;6.722;2023-03-01T16:30:06;10.33;;;7.27;;
15331;SDS011;7766;51.534;6.722;2023-03-01T16:31:08;8.53;;;6.70;;
15331;SDS011;7766;51.534;6.722;2023-03-01T16:32:09;9.20;;;6.33;;
15331;SDS011;7766;51.534;6.722;2023-03-01T16:33:10;13.60;;;7.03;;
15331;SDS011;7766;51.534;6.722;2023-03-01T16:34:11;12.63;;;7.57;;
15331;SDS011;7766;51.534;6.722;2023-03-01T16:35:13;10.87;;;7.17;;
15331;SDS011;7766;51.534;6.722;2023-03-01T16:36:17;11.40;;;6.60;;
15331;SDS011;7766;51.534;6.722;2023-03-01T16:37:19;14.50;;;6.93;;
15331;SDS011;7766;51.534;6.722;2023-03-01T16:38:21;10.27;;;6.73;;
15331;SDS011;7766;51.534;6.722;2023-03-01T16:39:22;10.40;;;7.00;;
15331;SDS011;7766;51.534;6.722;2023-03-01T16:40:25;11.80;;;6.03;;
15331;SDS011;7766;51.534;6.722;2023-03-01T16:41:27;10.93;;;6.83;;
15331;SDS011;7766;51.534;6.722;2023-03-01T16:42:28;10.20;;;6.40;;
15331;SDS011;7766;51.534;6.722;2023-03-01T16:43:34;8.47;;;6.47;;
15331;SDS011;7766;51.534;6.722;2023-03-01T16:44:35;11.93;;;6.40;;
15331;SDS011;7766;51.534;6.722;2023-03-01T16:45:36;11.73;;;6.23;;
15331;SDS011;7766;51.534;6.722;2023-03-01T16:46:39;8.50;;;6.27;;
15331;SDS011;7766;51.534;6.722;2023-03-01T16:47:43;10.80;;;6.40;;
15331;SDS011;7766;51.534;6.722;2023-03-01T16:48:45;11.83;;;7.43;;
15331;SDS011;7766;51.534;6.722;2023-03-01T16:49:47;14.20;;;6.53;;
15331;SDS011;7766;51.534;6.722;2023-03-01T16:50:58;10.57;;;6.90;;
15331;SDS011;7766;51.534;6.722;2023-03-01T16:52:00;11.60;;;8.13;;
15331;SDS011;7766;51.534;6.722;2023-03-01T16:53:01;9.77;;;7.30;;
15331;SDS011;7766;51.534;6.722;2023-03-01T16:54:03;11.47;;;8.40;;
15331;SDS011;7766;51.534;6.722;2023-03-01T16:55:05;16.43;;;8.07;;
15331;SDS011;7766;51.534;6.722;2023-03-01T16:56:08;11.17;;;7.70;;
15331;SDS011;7766;51.534;6.722;2023-03-01T16:57:10;10.77;;;7.20;;
15331;SDS011;7766;51.534;6.722;2023-03-01T16:58:11;12.10;;;6.60;;
15331;SDS011;7766;51.534;6.722;2023-03-01T16:59:12;10.93;;;6.60;;
15331;SDS011;7766;51.534;6.722;2023-03-01T17:00:14;9.63;;;6.77;;
15331;SDS011;7766;51.534;6.722;2023-03-01T17:01:16;9.13;;;6.60;;
15331;SDS011;7766;51.534;6.722;2023-03-01T17:02:19;20.73;;;10.60;;
15331;SDS011;7766;51.534;6.722;2023-03-01T17:03:21;9.80;;;7.27;;
15331;SDS011;7766;51.534;6.722;2023-03-01T17:04:23;15.32;;;9.15;;
15331;SDS011;7766;51.534;6.722;2023-03-01T17:05:24;18.33;;;10.50;;
15331;SDS011;7766;51.534;6.722;2023-03-01T17:06:25;15.45;;;10.05;;
15331;SDS011;7766;51.534;6.722;2023-03-01T17:07:26;13.85;;;9.40;;
15331;SDS011;7766;51.534;6.722;2023-03-01T17:08:28;18.83;;;9.60;;
15331;SDS011;7766;51.534;6.722;2023-03-01T17:09:29;16.70;;;9.52;;
15331;SDS011;7766;51.534;6.722;2023-03-01T17:10:33;16.00;;;9.50;;
15331;SDS011;7766;51.534;6.722;2023-03-01T17:11:35;11.13;;;6.40;;
15331;SDS011;7766;51.534;6.722;2023-03-01T17:12:36;16.42;;;6.93;;
15331;SDS011;7766;51.534;6.722;2023-03-01T17:13:38;11.65;;;7.28;;
15331;SDS011;7766;51.534;6.722;2023-03-01T17:14:39;20.17;;;9.70;;
15331;SDS011;7766;51.534;6.722;2023-03-01T17:15:41;12.80;;;7.55;;
15331;SDS011;7766;51.534;6.722;2023-03-01T17:16:42;11.35;;;6.68;;
15331;SDS011;7766;51.534;6.722;2023-03-01T17:17:44;10.23;;;6.45;;
15331;SDS011;7766;51.534;6.722;2023-03-01T17:18:50;15.30;;;6.90;;
15331;SDS011;7766;51.534;6.722;2023-03-01T17:19:51;15.55;;;7.18;;
15331;SDS011;7766;51.534;6.722;2023-03-01T17:20:52;10.43;;;6.95;;
15331;SDS011;7766;51.534;6.722;2023-03-01T17:21:53;12.17;;;7.17;;
15331;SDS011;7766;51.534;6.722;2023-03-01T17:22:54;11.95;;;7.30;;
15331;SDS011;7766;51.534;6.722;2023-03-01T17:23:56;12.33;;;7.10;;
15331;SDS011;7766;51.534;6.722;2023-03-01T17:24:57;12.10;;;7.25;;
15331;SDS011;7766;51.534;6.722;2023-03-01T17:25:58;20.38;;;7.38;;
15331;SDS011;7766;51.534;6.722;2023-03-01T17:26:59;11.07;;;7.30;;
15331;SDS011;7766;51.534;6.722;2023-03-01T17:28:00;13.05;;;7.10;;
15331;SDS011;7766;51.534;6.722;2023-03-01T17:29:01;9.43;;;6.95;;
15331;SDS011;7766;51.534;6.722;2023-03-01T17:30:04;14.32;;;7.45;;
15331;SDS011;7766;51.534;6.722;2023-03-01T17:31:07;10.43;;;6.80;;
15331;SDS011;7766;51.534;6.722;2023-03-01T17:32:08;10.85;;;7.32;;
15331;SDS011;7766;51.534;6.722;2023-03-01T17:33:10;8.18;;;6.43;;
15331;SDS011;7766;51.534;6.722;2023-03-01T17:34:11;11.50;;;6.38;;
15331;SDS011;7766;51.534;6.722;2023-03-01T17:35:12;9.77;;;6.30;;
15331;SDS011;7766;51.534;6.722;2023-03-01T17:36:13;11.13;;;6.88;;
15331;SDS011;7766;51.534;6.722;2023-03-01T17:37:13;10.03;;;6.90;;
15331;SDS011;7766;51.534;6.722;2023-03-01T17:38:14;10.13;;;6.97;;
15331;SDS011;7766;51.534;6.722;2023-03-01T17:39:17;9.73;;;6.25;;
15331;SDS011;7766;51.534;6.722;2023-03-01T17:40:24;11.15;;;6.78;;
15331;SDS011;7766;51.534;6.722;2023-03-01T17:41:25;8.43;;;6.83;;
15331;SDS011;7766;51.534;6.722;2023-03-01T17:42:27;13.90;;;6.88;;
15331;SDS011;7766;51.534;6.722;2023-03-01T17:43:28;11.03;;;7.10;;
15331;SDS011;7766;51.534;6.722;2023-03-01T17:44:30;9.75;;;6.28;;
15331;SDS011;7766;51.534;6.722;2023-03-01T17:45:35;12.60;;;6.82;;
15331;SDS011;7766;51.534;6.722;2023-03-01T17:46:37;15.32;;;7.18;;
15331;SDS011;7766;51.534;6.722;2023-03-01T17:47:38;12.73;;;7.55;;
15331;SDS011;7766;51.534;6.722;2023-03-01T17:48:39;11.50;;;7.20;;
15331;SDS011;7766;51.534;6.722;2023-03-01T17:49:40;14.37;;;7.80;;
15331;SDS011;7766;51.534;6.722;2023-03-01T17:50:41;12.85;;;7.35;;
15331;SDS011;7766;51.534;6.722;2023-03-01T17:51:42;10.43;;;7.05;;
15331;SDS011;7766;51.534;6.722;2023-03-01T17:52:44;11.75;;;7.00;;
15331;SDS011;7766;51.534;6.722;2023-03-01T17:53:45;13.27;;;6.90;;
15331;SDS011;7766;51.534;6.722;2023-03-01T17:54:46;12.43;;;7.50;;
15331;SDS011;7766;51.534;6.722;2023-03-01T17:55:47;20.27;;;8.73;;
15331;SDS011;7766;51.534;6.722;2023-03-01T17:56:53;12.13;;;7.93;;
15331;SDS011;7766;51.534;6.722;2023-03-01T17:57:55;12.60;;;7.22;;
15331;SDS011;7766;51.534;6.722;2023-03-01T17:58:56;12.13;;;7.50;;
15331;SDS011;7766;51.534;6.722;2023-03-01T17:59:57;15.45;;;7.68;;
15331;SDS011;7766;51.534;6.722;2023-03-01T18:01:12;14.52;;;7.45;;
15331;SDS011;7766;51.534;6.722;2023-03-01T18:02:14;10.18;;;7.10;;
15331;SDS011;7766;51.534;6.722;2023-03-01T18:03:15;15.45;;;8.98;;
15331;SDS011;7766;51.534;6.722;2023-03-01T18:04:16;13.73;;;8.13;;
15331;SDS011;7766;51.534;6.722;2023-03-01T18:05:19;15.50;;;8.88;;
15331;SDS011;7766;51.534;6.722;2023-03-01T18:06:21;16.13;;;9.00;;
15331;SDS011;7766;51.534;6.722;2023-03-01T18:07:27;14.05;;;9.02;;
15331;SDS011;7766;51.534;6.722;2023-03-01T18:08:28;12.15;;;8.15;;
15331;SDS011;7766;51.534;6.722;2023-03-01T18:09:29;18.15;;;7.95;;
15331;SDS011;7766;51.534;6.722;2023-03-01T18:10:30;13.20;;;8.55;;
15331;SDS011;7766;51.534;6.722;2023-03-01T18:11:32;19.40;;;8.40;;
15331;SDS011;7766;51.534;6.722;2023-03-01T18:12:34;14.07;;;8.48;;
15331;SDS011;7766;51.534;6.722;2023-03-01T18:13:35;16.15;;;10.25;;
15331;SDS011;7766;51.534;6.722;2023-03-01T18:14:38;19.20;;;9.88;;
15331;SDS011;7766;51.534;6.722;2023-03-01T18:15:39;16.50;;;9.60;;
15331;SDS011;7766;51.534;6.722;2023-03-01T18:16:40;20.83;;;11.13;;
15331;SDS011;7766;51.534;6.722;2023-03-01T18:17:41;20.10;;;10.57;;
15331;SDS011;7766;51.534;6.722;2023-03-01T18:18:42;25.80;;;12.25;;
15331;SDS011;7766;51.534;6.722;2023-03-01T18:19:46;26.63;;;12.57;;
15331;SDS011;7766;51.534;6.722;2023-03-01T18:20:54;18.20;;;10.27;;
15331;SDS011;7766;51.534;6.722;2023-03-01T18:21:56;18.15;;;11.20;;
15331;SDS011;7766;51.534;6.722;2023-03-01T18:22:57;21.85;;;11.38;;
15331;SDS011;7766;51.534;6.722;2023-03-01T18:23:58;20.58;;;11.98;;
15331;SDS011;7766;51.534;6.722;2023-03-01T18:25:00;20.35;;;11.10;;
15331;SDS011;7766;51.534;6.722;2023-03-01T18:26:03;21.90;;;12.27;;
15331;SDS011;7766;51.534;6.722;2023-03-01T18:27:05;18.98;;;10.50;;
15331;SDS011;7766;51.534;6.722;2023-03-01T18:28:07;15.85;;;10.10;;
15331;SDS011;7766;51.534;6.722;2023-03-01T18:29:08;17.10;;;8.07;;
15331;SDS011;7766;51.534;6.722;2023-03-01T18:30:09;12.05;;;7.93;;
15331;SDS011;7766;51.534;6.722;2023-03-01T18:31:12;12.27;;;7.93;;
15331;SDS011;7766;51.534;6.722;2023-03-01T18:32:17;13.63;;;7.82;;
15331;SDS011;7766;51.534;6.722;2023-03-01T18:33:18;12.95;;;7.45;;
15331;SDS011;7766;51.534;6.722;2023-03-01T18:34:19;12.55;;;6.72;;
15331;SDS011;7766;51.534;6.722;2023-03-01T18:35:21;13.75;;;7.25;;
15331;SDS011;7766;51.534;6.722;2023-03-01T18:36:24;11.60;;;7.50;;
15331;SDS011;7766;51.534;6.722;2023-03-01T18:37:34;15.88;;;7.80;;
15331;SDS011;7766;51.534;6.722;2023-03-01T18:38:35;15.60;;;8.88;;
15331;SDS011;7766;51.534;6.722;2023-03-01T18:39:36;13.20;;;7.83;;
15331;SDS011;7766;51.534;6.722;2023-03-01T18:40:38;11.35;;;7.95;;
15331;SDS011;7766;51.534;6.722;2023-03-01T18:41:40;14.60;;;6.97;;
15331;SDS011;7766;51.534;6.722;2023-03-01T18:42:41;14.10;;;6.27;;
15331;SDS011;7766;51.534;6.722;2023-03-01T18:43:42;12.57;;;6.50;;
15331;SDS011;7766;51.534;6.722;2023-03-01T18:44:43;16.45;;;6.47;;
15331;SDS011;7766;51.534;6.722;2023-03-01T18:45:55;10.65;;;6.55;;
15331;SDS011;7766;51.534;6.722;2023-03-01T18:46:57;11.65;;;6.18;;
15331;SDS011;7766;51.534;6.722;2023-03-01T18:47:58;10.07;;;5.95;;
15331;SDS011;7766;51.534;6.722;2023-03-01T18:48:59;12.95;;;6.05;;
15331;SDS011;7766;51.534;6.722;2023-03-01T18:50:00;12.63;;;6.47;;
15331;SDS011;7766;51.534;6.722;2023-03-01T18:51:12;11.05;;;6.15;;
15331;SDS011;7766;51.534;6.722;2023-03-01T18:52:16;13.10;;;5.88;;
15331;SDS011;7766;51.534;6.722;2023-03-01T18:53:17;12.65;;;5.90;;
15331;SDS011;7766;51.534;6.722;2023-03-01T18:54:18;10.38;;;6.03;;
15331;SDS011;7766;51.534;6.722;2023-03-01T18:55:19;12.73;;;5.88;;
15331;SDS011;7766;51.534;6.722;2023-03-01T18:56:20;11.60;;;6.72;;
15331;SDS011;7766;51.534;6.722;2023-03-01T18:57:21;12.13;;;6.53;;
15331;SDS011;7766;51.534;6.722;2023-03-01T18:58:22;14.75;;;6.57;;
15331;SDS011;7766;51.534;6.722;2023-03-01T18:59:23;13.50;;;6.70;;
15331;SDS011;7766;51.534;6.722;2023-03-01T19:00:25;11.30;;;6.30;;
15331;SDS011;7766;51.534;6.722;2023-03-01T19:01:26;10.93;;;6.93;;
15331;SDS011;7766;51.534;6.722;2023-03-01T19:02:29;9.68;;;6.10;;
15331;SDS011;7766;51.534;6.722;2023-03-01T19:03:30;9.43;;;6.78;;
15331;SDS011;7766;51.534;6.722;2023-03-01T19:04:31;13.85;;;6.95;;
15331;SDS011;7766;51.534;6.722;2023-03-01T19:05:32;10.85;;;6.82;;
15331;SDS011;7766;51.534;6.722;2023-03-01T19:06:33;13.47;;;6.57;;
15331;SDS011;7766;51.534;6.722;2023-03-01T19:07:34;9.97;;;6.10;;
15331;SDS011;7766;51.534;6.722;2023-03-01T19:08:36;16.63;;;7.05;;
15331;SDS011;7766;51.534;6.722;2023-03-01T19:09:39;11.93;;;5.93;;
15331;SDS011;7766;51.534;6.722;2023-03-01T19:10:39;10.23;;;6.07;;
15331;SDS011;7766;51.534;6.722;2023-03-01T19:11:40;11.43;;;6.23;;
15331;SDS011;7766;51.534;6.722;2023-03-01T19:12:41;11.65;;;6.45;;
15331;SDS011;7766;51.534;6.722;2023-03-01T19:13:43;9.40;;;6.15;;
15331;SDS011;7766;51.534;6.722;2023-03-01T19:14:45;9.90;;;5.78;;
15331;SDS011;7766;51.534;6.722;2023-03-01T19:15:46;10.35;;;6.18;;
15331;SDS011;7766;51.534;6.722;2023-03-01T19:16:46;9.43;;;6.37;;
15331;SDS011;7766;51.534;6.722;2023-03-01T19:17:47;12.00;;;6.18;;
15331;SDS011;7766;51.534;6.722;2023-03-01T19:18:48;11.63;;;6.73;;
15331;SDS011;7766;51.534;6.722;2023-03-01T19:19:50;11.40;;;6.15;;
15331;SDS011;7766;51.534;6.722;2023-03-01T19:20:56;7.43;;;5.93;;
15331;SDS011;7766;51.534;6.722;2023-03-01T19:21:58;10.98;;;6.38;;
15331;SDS011;7766;51.534;6.722;2023-03-01T19:22:59;11.90;;;6.53;;
15331;SDS011;7766;51.534;6.722;2023-03-01T19:24:01;11.38;;;6.88;;
15331;SDS011;7766;51.534;6.722;2023-03-01T19:25:02;18.17;;;6.85;;
15331;SDS011;7766;51.534;6.722;2023-03-01T19:26:09;10.25;;;6.78;;
15331;SDS011;7766;51.534;6.722;2023-03-01T19:27:11;14.85;;;8.25;;
15331;SDS011;7766;51.534;6.722;2023-03-01T19:28:12;13.65;;;7.20;;
15331;SDS011;7766;51.534;6.722;2023-03-01T19:29:13;13.67;;;8.57;;
15331;SDS011;7766;51.534;6.722;2023-03-01T19:30:14;14.50;;;8.00;;
15331;SDS011;7766;51.534;6.722;2023-03-01T19:31:16;13.70;;;8.25;;
15331;SDS011;7766;51.534;6.722;2023-03-01T19:32:23;14.63;;;8.10;;
15331;SDS011;7766;51.534;6.722;2023-03-01T19:33:24;16.95;;;8.45;;
15331;SDS011;7766;51.534;6.722;2023-03-01T19:34:25;22.23;;;8.57;;
15331;SDS011;7766;51.534;6.722;2023-03-01T19:35:26;11.38;;;7.57;;
15331;SDS011;7766;51.534;6.722;2023-03-01T19:36:27;10.98;;;6.95;;
15331;SDS011;7766;51.534;6.722;2023-03-01T19:37:34;14.52;;;7.22;;
15331;SDS011;7766;51.534;6.722;2023-03-01T19:38:35;14.50;;;7.87;;
15331;SDS011;7766;51.534;6.722;2023-03-01T19:39:36;13.32;;;7.53;;
15331;SDS011;7766;51.534;6.722;2023-03-01T19:40:38;12.10;;;7.50;;
15331;SDS011;7766;51.534;6.722;2023-03-01T19:41:39;15.52;;;6.50;;